This is the latest recevied weather packets stored in our database for station/object DL2GPS-3. If no packets are shown the sender has not sent any weather packets the latest 10 day(s).
| Time | Temp. | Humidity | Pressure | Rain* | Wind** | Luminosity | Snow |
|---|---|---|---|---|---|---|---|
| 1788178575 | 19.44° C | 65% | 1021.6 hPa | - | - | - | - |
| 1788177970 | 20° C | 62% | 1021.8 hPa | - | - | - | - |
| 1788177365 | 21.67° C | 62% | 1021.7 hPa | - | - | - | - |
| 1788176760 | 20.56° C | 65% | 1021.8 hPa | - | - | - | - |
| 1788176155 | 20° C | 66% | 1021.8 hPa | - | - | - | - |
| 1788175550 | 18.89° C | 69% | 1021.8 hPa | - | - | - | - |
| 1788174945 | 19.44° C | 69% | 1021.8 hPa | - | - | - | - |
| 1788174340 | 20.56° C | 67% | 1021.8 hPa | - | - | - | - |
| 1788173735 | 18.89° C | 71% | 1021.8 hPa | - | - | - | - |
| 1788173130 | 18.89° C | 69% | 1021.8 hPa | - | - | - | - |
| 1788172525 | 18.89° C | 67% | 1021.6 hPa | - | - | - | - |
| 1788171920 | 19.44° C | 67% | 1021.6 hPa | - | - | - | - |
| 1788171315 | 19.44° C | 64% | 1021.6 hPa | - | - | - | - |
| 1788170710 | 19.44° C | 68% | 1021.7 hPa | - | - | - | - |
| 1788170105 | 19.44° C | 67% | 1021.8 hPa | - | - | - | - |
| 1788169500 | 19.44° C | 70% | 1021.8 hPa | - | - | - | - |
| 1788168895 | 20° C | 69% | 1021.8 hPa | - | - | - | - |
| 1788168290 | 19.44° C | 71% | 1021.5 hPa | - | - | - | - |
| 1788167685 | 19.44° C | 71% | 1021.5 hPa | - | - | - | - |
| 1788167079 | 18.89° C | 71% | 1021.4 hPa | - | - | - | - |
| 1788166474 | 19.44° C | 71% | 1021.4 hPa | - | - | - | - |
| 1788165869 | 18.89° C | 72% | 1021.4 hPa | - | - | - | - |
| 1788165264 | 18.89° C | 71% | 1021.2 hPa | - | - | - | - |
| 1788164659 | 18.89° C | 74% | 1021.1 hPa | - | - | - | - |
| 1788164054 | 18.89° C | 74% | 1021.2 hPa | - | - | - | - |
* Rain since midnight (hover to see other rain measurements)
** Current wind speed in m/s (hover to see current wind gust speed)